Time;durP1;ratioP1;P1;durP2;ratioP2;P2;SDS_P1;SDS_P2;PMS_P1;PMS_P2;Temp;Humidity;BMP_temperature;BMP_pressure;BME280_temperature;BME280_humidity;BME280_pressure;Samples;Min_cycle;Max_cycle;Signal;HPM_P1;HPM_P2
2022/08/20 00:02:03;;;;;;;10.88;9.77;;;17.90;99.90;;;;;;5115041;28;20199;-86
2022/08/20 00:04:30;;;;;;;10.35;9.45;;;17.90;99.90;;;;;;5103723;28;20204;-86
2022/08/20 00:06:58;;;;;;;11.50;10.38;;;17.80;99.90;;;;;;5104747;28;20224;-86
2022/08/20 00:09:25;;;;;;;10.93;9.95;;;17.90;99.90;;;;;;5114400;28;20261;-86
2022/08/20 00:11:52;;;;;;;12.52;10.10;;;17.90;99.90;;;;;;5115163;27;20291;-86
2022/08/20 00:14:19;;;;;;;11.32;10.18;;;17.90;99.90;;;;;;5115367;28;20782;-86
2022/08/20 00:16:46;;;;;;;11.43;10.43;;;17.90;99.90;;;;;;5110910;28;20300;-86
2022/08/20 00:19:14;;;;;;;11.68;10.50;;;17.80;99.90;;;;;;5111215;28;20569;-85
2022/08/20 00:21:41;;;;;;;11.10;10.00;;;17.80;99.90;;;;;;5115635;28;20605;-86
2022/08/20 00:24:08;;;;;;;11.52;10.43;;;17.90;99.90;;;;;;5100660;28;20201;-86
2022/08/20 00:26:35;;;;;;;11.02;10.02;;;18.00;99.90;;;;;;5103061;28;20228;-85
2022/08/20 00:29:02;;;;;;;13.75;9.98;;;17.90;99.90;;;;;;5116011;28;20200;-85
2022/08/20 00:31:29;;;;;;;12.13;11.02;;;17.90;99.90;;;;;;5115592;28;20196;-85
2022/08/20 00:33:56;;;;;;;11.93;10.85;;;17.90;99.90;;;;;;5102834;28;20231;-85
2022/08/20 00:36:24;;;;;;;14.48;12.98;;;17.80;99.90;;;;;;5115956;28;20751;-85
2022/08/20 00:38:51;;;;;;;11.27;10.18;;;17.90;99.90;;;;;;5113778;28;20192;-85
2022/08/20 00:41:22;;;;;;;11.30;10.27;;;17.80;99.90;;;;;;5113548;28;20911;-86
2022/08/20 00:43:51;;;;;;;11.57;10.45;;;17.80;99.90;;;;;;5113707;28;20230;-86
2022/08/20 00:46:22;;;;;;;11.38;10.27;;;17.80;99.90;;;;;;5113569;28;20590;-86
2022/08/20 00:48:53;;;;;;;12.25;10.38;;;17.90;99.90;;;;;;5115446;28;20191;-86
2022/08/20 00:51:28;;;;;;;12.18;11.00;;;17.80;99.90;;;;;;5113429;28;20203;-86
2022/08/20 00:53:58;;;;;;;12.65;11.35;;;17.80;99.90;;;;;;5115097;28;20282;-85
2022/08/20 00:56:32;;;;;;;12.88;10.98;;;17.80;99.90;;;;;;5115802;28;20217;-86
2022/08/20 00:59:00;;;;;;;12.20;10.88;;;17.80;99.90;;;;;;5111366;28;20218;-86
2022/08/20 01:01:27;;;;;;;12.77;11.57;;;17.80;99.90;;;;;;5105205;28;20196;-86
2022/08/20 01:03:55;;;;;;;12.95;11.57;;;17.80;99.90;;;;;;5104670;28;20203;-86
2022/08/20 01:06:23;;;;;;;13.02;11.82;;;17.80;99.90;;;;;;5109473;28;20220;-86
2022/08/20 01:08:52;;;;;;;14.10;12.20;;;17.80;99.90;;;;;;5097499;28;20200;-86
2022/08/20 01:11:21;;;;;;;14.07;12.68;;;17.90;99.90;;;;;;5114143;28;20207;-86
2022/08/20 01:13:49;;;;;;;14.27;12.93;;;17.80;99.90;;;;;;5103736;28;20633;-86
2022/08/20 01:16:27;;;;;;;14.27;12.85;;;17.80;99.90;;;;;;5102300;28;20207;-86
2022/08/20 01:19:01;;;;;;;14.23;12.82;;;17.90;99.90;;;;;;5103538;28;20262;-86
2022/08/20 01:21:33;;;;;;;14.80;12.90;;;17.90;99.90;;;;;;5102318;28;20198;-86
2022/08/20 01:24:16;;;;;;;14.65;13.15;;;17.90;99.90;;;;;;5114806;28;20212;-86
2022/08/20 01:26:48;;;;;;;14.93;13.52;;;17.90;99.90;;;;;;5109920;28;20223;-86
2022/08/20 01:29:17;;;;;;;14.60;13.10;;;17.80;99.90;;;;;;5095412;28;20657;-86
2022/08/20 01:31:46;;;;;;;15.05;13.60;;;17.80;99.90;;;;;;5111982;28;20207;-86
2022/08/20 01:34:15;;;;;;;15.57;13.95;;;17.80;99.90;;;;;;5114391;28;20215;-86
2022/08/20 01:36:48;;;;;;;15.32;13.60;;;17.70;99.90;;;;;;5100873;28;20211;-86
2022/08/20 01:39:18;;;;;;;18.25;13.82;;;17.70;99.90;;;;;;5095254;28;20300;-86
2022/08/20 01:41:57;;;;;;;14.95;13.25;;;17.70;99.90;;;;;;5098823;28;20224;-86
2022/08/20 01:44:24;;;;;;;15.70;14.20;;;17.70;99.90;;;;;;5111969;28;20697;-86
2022/08/20 01:46:56;;;;;;;15.20;13.70;;;17.60;99.90;;;;;;5114393;28;20219;-86
2022/08/20 01:49:26;;;;;;;15.25;13.65;;;17.60;99.90;;;;;;5114814;28;20207;-86
2022/08/20 01:51:56;;;;;;;15.93;14.32;;;17.60;99.90;;;;;;5113694;28;20195;-86
2022/08/20 01:54:24;;;;;;;15.77;14.13;;;17.60;99.90;;;;;;5113569;28;20196;-85
2022/08/20 01:56:57;;;;;;;16.45;14.75;;;17.70;99.90;;;;;;5112851;28;20199;-86
2022/08/20 01:59:25;;;;;;;16.40;14.35;;;17.60;99.90;;;;;;5114041;28;20602;-85
2022/08/20 02:01:52;;;;;;;19.02;14.77;;;17.60;99.90;;;;;;5113033;28;20264;-85
2022/08/20 02:04:20;;;;;;;17.15;15.45;;;17.60;99.90;;;;;;5114494;28;20204;-86
2022/08/20 02:07:00;;;;;;;20.20;16.08;;;17.60;99.90;;;;;;5110618;28;20560;-86
2022/08/20 02:09:28;;;;;;;16.77;14.98;;;17.50;99.90;;;;;;5104929;28;20199;-86
2022/08/20 02:11:58;;;;;;;17.40;15.60;;;17.50;99.90;;;;;;5111952;28;20209;-86
2022/08/20 02:14:26;;;;;;;17.85;16.02;;;17.50;99.90;;;;;;5112190;28;20208;-86
2022/08/20 02:16:53;;;;;;;16.77;15.13;;;17.60;99.90;;;;;;5114740;28;20208;-86
2022/08/20 02:19:26;;;;;;;18.65;16.65;;;17.50;99.90;;;;;;5114426;28;20290;-86
2022/08/20 02:21:58;;;;;;;17.92;16.13;;;17.50;99.90;;;;;;5114820;28;20257;-86
2022/08/20 02:24:28;;;;;;;19.75;17.67;;;17.40;99.90;;;;;;5111694;28;20265;-86
2022/08/20 02:27:00;;;;;;;18.35;16.17;;;17.40;99.90;;;;;;5114452;28;20234;-86
2022/08/20 02:29:28;;;;;;;19.65;17.65;;;17.40;99.90;;;;;;5105122;28;20197;-86
2022/08/20 02:31:55;;;;;;;19.75;17.30;;;17.40;99.90;;;;;;5114099;28;20228;-86
2022/08/20 02:34:21;;;;;;;19.65;17.55;;;17.40;99.90;;;;;;5106015;28;20593;-86
2022/08/20 02:36:49;;;;;;;19.30;17.33;;;17.30;99.90;;;;;;5102442;28;20573;-86
2022/08/20 02:39:16;;;;;;;19.63;17.63;;;17.30;99.90;;;;;;5112882;28;20204;-86
2022/08/20 02:41:43;;;;;;;20.27;18.13;;;17.30;99.90;;;;;;5112460;28;20204;-86
2022/08/20 02:44:11;;;;;;;18.60;16.67;;;17.30;99.90;;;;;;5110152;28;20327;-86
2022/08/20 02:46:38;;;;;;;20.98;18.30;;;17.30;99.90;;;;;;5104734;28;20223;-86
2022/08/20 02:49:05;;;;;;;20.65;17.63;;;17.30;99.90;;;;;;5117244;28;20204;-86
2022/08/20 02:51:32;;;;;;;18.73;16.80;;;17.40;99.90;;;;;;5112734;28;20208;-86
2022/08/20 02:53:59;;;;;;;20.13;17.63;;;17.40;99.90;;;;;;5118177;28;20286;-86
2022/08/20 02:56:29;;;;;;;19.90;17.45;;;17.40;99.90;;;;;;5113681;28;20282;-86
2022/08/20 02:58:56;;;;;;;20.70;18.20;;;17.50;99.90;;;;;;5113655;28;20573;-86
2022/08/20 03:01:25;;;;;;;20.98;18.80;;;17.40;99.90;;;;;;5116835;28;20231;-86
2022/08/20 03:03:51;;;;;;;19.13;17.13;;;17.40;99.90;;;;;;5113235;28;20204;-86
2022/08/20 03:06:23;;;;;;;20.80;18.25;;;17.40;99.90;;;;;;5117873;28;20306;-86
2022/08/20 03:08:50;;;;;;;19.90;17.80;;;17.40;99.90;;;;;;5112667;28;20219;-86
2022/08/20 03:11:18;;;;;;;20.08;18.02;;;17.40;99.90;;;;;;5117492;28;20200;-86
2022/08/20 03:13:47;;;;;;;19.63;17.58;;;17.40;99.90;;;;;;5116894;28;20211;-86
2022/08/20 03:16:15;;;;;;;22.58;17.92;;;17.40;99.90;;;;;;5116878;28;20216;-86
2022/08/20 03:18:46;;;;;;;19.95;17.90;;;17.30;99.90;;;;;;5117201;28;20666;-86
2022/08/20 03:21:17;;;;;;;19.63;17.55;;;17.30;99.90;;;;;;5102580;28;20195;-86
2022/08/20 03:23:44;;;;;;;20.67;17.67;;;17.40;99.90;;;;;;5115949;28;20204;-86
2022/08/20 03:26:12;;;;;;;20.38;18.27;;;17.40;99.90;;;;;;5114814;28;20269;-86
2022/08/20 03:28:39;;;;;;;19.98;17.88;;;17.30;99.90;;;;;;5112464;28;20650;-86
2022/08/20 03:31:06;;;;;;;22.42;18.42;;;17.40;99.90;;;;;;5116159;28;20214;-86
2022/08/20 03:33:38;;;;;;;19.60;17.60;;;17.40;99.90;;;;;;5115575;28;20204;-86
2022/08/20 03:36:07;;;;;;;20.35;17.95;;;17.50;99.90;;;;;;5114120;28;20226;-86
2022/08/20 03:38:34;;;;;;;21.10;18.65;;;17.50;99.90;;;;;;5111214;28;20236;-87
2022/08/20 03:41:02;;;;;;;21.08;18.63;;;17.40;99.90;;;;;;5097328;28;20210;-86
2022/08/20 03:43:31;;;;;;;20.77;18.17;;;17.40;99.90;;;;;;5111170;28;20302;-86
2022/08/20 03:45:57;;;;;;;21.35;18.33;;;17.30;99.90;;;;;;5115044;28;20669;-86
2022/08/20 03:48:24;;;;;;;20.38;18.27;;;17.30;99.90;;;;;;5115510;28;20216;-86
2022/08/20 03:50:51;;;;;;;20.20;18.05;;;17.30;99.90;;;;;;5113186;28;20218;-86
2022/08/20 03:53:31;;;;;;;22.55;19.00;;;17.30;99.90;;;;;;5114441;28;20560;-86
2022/08/20 03:56:00;;;;;;;22.88;18.17;;;17.30;99.90;;;;;;5117141;28;20208;-86
2022/08/20 03:58:28;;;;;;;21.70;19.17;;;17.30;99.90;;;;;;5116881;28;20192;-86
2022/08/20 04:00:55;;;;;;;22.55;18.77;;;17.20;99.90;;;;;;5116871;28;20616;-86
2022/08/20 04:03:23;;;;;;;21.08;18.85;;;17.20;99.90;;;;;;5114649;28;20191;-86
2022/08/20 04:05:50;;;;;;;20.42;18.15;;;17.20;99.90;;;;;;5116773;28;20208;-86
2022/08/20 04:08:20;;;;;;;21.05;18.85;;;17.20;99.90;;;;;;5112196;28;20627;-86
2022/08/20 04:10:50;;;;;;;22.88;19.38;;;17.20;99.90;;;;;;5116129;28;20200;-86
2022/08/20 04:13:21;;;;;;;22.13;19.73;;;17.20;99.90;;;;;;5113880;28;20204;-86
2022/08/20 04:15:55;;;;;;;19.77;17.77;;;17.20;99.90;;;;;;5115400;28;20202;-86
2022/08/20 04:18:24;;;;;;;20.58;18.38;;;17.20;99.90;;;;;;5112775;28;20199;-86
2022/08/20 04:20:52;;;;;;;22.95;19.42;;;17.20;99.90;;;;;;5116524;28;20609;-86
2022/08/20 04:23:19;;;;;;;21.40;18.48;;;17.20;99.90;;;;;;5113547;28;20320;-86
2022/08/20 04:25:48;;;;;;;21.38;19.08;;;17.20;99.90;;;;;;5113584;28;20283;-86
2022/08/20 04:28:23;;;;;;;21.02;18.58;;;17.20;99.90;;;;;;5104158;28;20299;-86
2022/08/20 04:30:51;;;;;;;23.05;19.00;;;17.20;99.90;;;;;;5110440;28;20286;-86
2022/08/20 04:33:18;;;;;;;20.50;18.30;;;17.20;99.90;;;;;;5109603;28;20192;-86
2022/08/20 04:35:45;;;;;;;21.23;17.23;;;17.30;99.90;;;;;;5097268;28;20204;-86
2022/08/20 04:38:19;;;;;;;20.35;18.10;;;17.30;99.90;;;;;;5107017;28;20203;-86
2022/08/20 04:40:53;;;;;;;18.35;16.45;;;17.30;99.90;;;;;;5115280;28;20200;-86
2022/08/20 04:43:21;;;;;;;19.67;17.70;;;17.30;99.90;;;;;;5112260;28;20207;-86
2022/08/20 04:45:50;;;;;;;20.83;17.60;;;17.30;99.90;;;;;;5100110;28;20651;-86
2022/08/20 04:48:18;;;;;;;20.45;18.33;;;17.30;99.90;;;;;;5115134;28;20228;-86
2022/08/20 04:50:46;;;;;;;19.60;17.60;;;17.40;99.90;;;;;;5115019;28;20551;-86
2022/08/20 04:53:16;;;;;;;20.27;17.92;;;17.30;99.90;;;;;;5111002;27;20199;-86
2022/08/20 04:55:44;;;;;;;19.38;17.33;;;17.40;99.90;;;;;;5114902;28;20235;-86
2022/08/20 04:58:23;;;;;;;19.83;17.73;;;17.30;99.90;;;;;;5106640;28;20204;-85
2022/08/20 05:00:53;;;;;;;20.65;18.50;;;17.30;99.90;;;;;;5107613;28;20624;-86
2022/08/20 05:03:20;;;;;;;21.38;16.90;;;17.30;99.90;;;;;;5108291;28;20207;-86
2022/08/20 05:05:49;;;;;;;23.20;18.48;;;17.30;99.90;;;;;;5107627;28;20203;-86
2022/08/20 05:08:18;;;;;;;19.85;17.55;;;17.30;99.90;;;;;;5114765;28;20212;-86
2022/08/20 05:10:45;;;;;;;19.20;16.77;;;17.30;99.90;;;;;;5115073;28;22089;-86
2022/08/20 05:13:12;;;;;;;18.52;15.88;;;17.30;99.90;;;;;;5112130;28;20617;-86
2022/08/20 05:15:40;;;;;;;18.88;16.88;;;17.30;99.90;;;;;;5109116;28;20206;-86
2022/08/20 05:18:08;;;;;;;21.88;16.95;;;17.30;99.90;;;;;;5110617;28;20230;-86
2022/08/20 05:20:38;;;;;;;18.27;16.25;;;17.30;99.90;;;;;;5110975;28;20210;-86
2022/08/20 05:23:07;;;;;;;18.35;16.25;;;17.30;99.90;;;;;;5112536;28;20253;-86
2022/08/20 05:25:34;;;;;;;18.25;16.35;;;17.40;99.90;;;;;;5111855;28;20195;-86
2022/08/20 05:28:08;;;;;;;18.63;16.67;;;17.40;99.90;;;;;;5113616;28;20234;-86
2022/08/20 05:30:36;;;;;;;19.40;16.88;;;17.40;99.90;;;;;;5111302;28;20214;-86
2022/08/20 05:33:05;;;;;;;18.95;16.98;;;17.40;99.90;;;;;;5114102;28;20204;-86
2022/08/20 05:35:38;;;;;;;19.88;17.30;;;17.40;99.90;;;;;;5110773;28;20204;-86
2022/08/20 05:38:05;;;;;;;18.55;16.65;;;17.40;99.90;;;;;;5112203;28;20208;-86
2022/08/20 05:40:32;;;;;;;17.33;15.50;;;17.40;99.90;;;;;;5113808;28;20209;-86
2022/08/20 05:42:59;;;;;;;17.80;15.93;;;17.50;99.90;;;;;;5113886;28;20686;-86
2022/08/20 05:45:26;;;;;;;16.75;15.15;;;17.50;99.90;;;;;;5099523;28;20220;-86
2022/08/20 05:47:54;;;;;;;17.25;15.48;;;17.60;99.90;;;;;;5110914;28;20223;-86
2022/08/20 05:50:22;;;;;;;17.70;15.77;;;17.60;99.90;;;;;;5113371;28;20227;-86
2022/08/20 05:52:49;;;;;;;16.92;15.23;;;17.60;99.90;;;;;;5111887;28;20203;-86
2022/08/20 05:55:16;;;;;;;16.88;15.07;;;17.60;99.90;;;;;;5113246;28;20208;-86
2022/08/20 05:57:44;;;;;;;16.88;15.07;;;17.60;99.90;;;;;;5110916;28;20218;-86
2022/08/20 06:00:13;;;;;;;16.55;14.75;;;17.80;99.90;;;;;;5111626;28;20287;-86
2022/08/20 06:05:28;;;;;;;17.13;15.38;;;17.90;99.90;;;;;;5100481;28;20218;-86
2022/08/20 06:07:55;;;;;;;16.98;15.20;;;17.90;99.90;;;;;;5110109;28;20710;-86
2022/08/20 06:10:21;;;;;;;17.30;15.32;;;17.90;99.90;;;;;;5112769;28;20195;-86
2022/08/20 06:12:48;;;;;;;17.73;15.90;;;18.00;99.90;;;;;;5110956;28;20574;-86
2022/08/20 06:15:17;;;;;;;16.35;14.35;;;18.00;99.90;;;;;;5106232;28;20575;-86
2022/08/20 06:17:44;;;;;;;15.80;14.30;;;18.00;99.90;;;;;;5107155;28;20199;-86
2022/08/20 06:20:11;;;;;;;15.18;13.57;;;18.20;99.90;;;;;;5115758;28;20199;-86
2022/08/20 06:22:49;;;;;;;17.25;14.27;;;18.30;99.90;;;;;;5107306;28;20579;-86
2022/08/20 06:25:16;;;;;;;15.88;13.55;;;18.30;99.90;;;;;;5115825;28;20281;-86
2022/08/20 06:27:43;;;;;;;16.05;14.38;;;18.20;99.90;;;;;;5105643;28;20223;-86
2022/08/20 06:30:13;;;;;;;15.32;13.82;;;18.30;99.90;;;;;;5110316;28;20202;-86
2022/08/20 06:32:40;;;;;;;15.50;13.90;;;18.30;99.90;;;;;;5110672;28;20203;-86
2022/08/20 06:35:12;;;;;;;15.77;13.60;;;18.40;99.90;;;;;;5110628;28;20214;-86
2022/08/20 06:37:41;;;;;;;15.50;14.00;;;18.50;99.90;;;;;;5114858;28;20198;-86
2022/08/20 06:40:15;;;;;;;15.35;13.80;;;18.60;99.90;;;;;;5117384;28;20252;-86
2022/08/20 06:42:44;;;;;;;14.73;13.07;;;18.50;99.90;;;;;;5101804;28;20254;-86
2022/08/20 06:45:11;;;;;;;13.85;12.55;;;18.60;99.90;;;;;;5101954;28;20216;-86
2022/08/20 06:47:40;;;;;;;14.27;12.82;;;18.80;99.90;;;;;;5112435;28;20232;-86
2022/08/20 06:50:08;;;;;;;13.70;12.38;;;18.80;99.90;;;;;;5116132;28;20679;-86
2022/08/20 06:52:36;;;;;;;13.43;12.13;;;18.80;99.90;;;;;;5116450;28;20625;-86
2022/08/20 06:55:07;;;;;;;12.60;11.27;;;18.80;99.90;;;;;;5117675;28;20260;-86
2022/08/20 06:57:36;;;;;;;13.50;11.80;;;18.80;99.90;;;;;;5116335;27;20199;-86
2022/08/20 07:00:04;;;;;;;13.20;11.88;;;18.90;99.50;;;;;;5116538;28;20681;-86
2022/08/20 07:02:36;;;;;;;13.20;11.90;;;18.90;99.50;;;;;;5117057;28;20198;-86
2022/08/20 07:05:04;;;;;;;12.63;11.32;;;18.80;99.50;;;;;;5119147;28;20698;-86
2022/08/20 07:07:31;;;;;;;13.43;11.98;;;18.70;99.40;;;;;;5116626;28;20230;-86
2022/08/20 07:10:02;;;;;;;13.27;11.93;;;18.60;99.60;;;;;;5116691;28;20203;-86
2022/08/20 07:12:30;;;;;;;14.50;12.57;;;18.60;99.60;;;;;;5117717;28;20188;-86
2022/08/20 07:14:58;;;;;;;13.35;12.02;;;18.50;99.80;;;;;;5115681;27;20990;-86
2022/08/20 07:17:25;;;;;;;12.63;11.15;;;18.50;99.90;;;;;;5114972;28;20551;-86
2022/08/20 07:19:52;;;;;;;12.32;10.98;;;18.60;99.90;;;;;;5116995;28;20198;-86
2022/08/20 07:22:23;;;;;;;14.82;11.82;;;18.60;99.90;;;;;;5116156;28;20192;-86
2022/08/20 07:24:50;;;;;;;16.58;12.63;;;18.70;99.90;;;;;;5115109;28;20196;-86
2022/08/20 07:27:21;;;;;;;11.63;10.23;;;18.60;99.80;;;;;;5114952;28;20547;-86
2022/08/20 07:32:37;;;;;;;12.95;11.57;;;18.60;99.90;;;;;;5111069;28;20242;-86
2022/08/20 07:35:06;;;;;;;12.35;11.15;;;18.70;99.90;;;;;;5099870;28;20200;-86
2022/08/20 07:37:38;;;;;;;12.40;11.10;;;18.70;99.90;;;;;;5102717;28;20583;-86
2022/08/20 07:40:07;;;;;;;12.85;11.32;;;18.80;99.90;;;;;;5105379;28;20201;-86
2022/08/20 07:42:34;;;;;;;11.63;10.55;;;18.90;99.80;;;;;;5111975;28;20189;-86
2022/08/20 07:45:01;;;;;;;11.70;10.50;;;18.90;99.60;;;;;;5106026;28;20590;-86
2022/08/20 07:47:29;;;;;;;12.10;10.90;;;19.00;99.60;;;;;;5116353;28;20211;-86
2022/08/20 07:49:57;;;;;;;11.07;9.98;;;18.90;99.40;;;;;;5116587;28;20200;-86
2022/08/20 07:52:24;;;;;;;11.40;10.30;;;18.90;99.60;;;;;;5113116;28;20218;-86
2022/08/20 07:54:51;;;;;;;12.70;11.50;;;18.90;99.40;;;;;;5111180;28;20200;-86
2022/08/20 07:57:18;;;;;;;12.73;11.05;;;18.90;99.50;;;;;;5112397;28;20268;-86
2022/08/20 07:59:45;;;;;;;13.27;11.43;;;18.80;99.90;;;;;;5114780;28;20207;-86
2022/08/20 08:02:12;;;;;;;13.13;11.82;;;18.80;99.90;;;;;;5109821;28;20227;-86
2022/08/20 08:04:39;;;;;;;11.85;10.68;;;18.80;99.90;;;;;;5112734;28;20559;-86
2022/08/20 08:07:07;;;;;;;13.90;11.35;;;18.80;99.90;;;;;;5109605;27;20212;-86
2022/08/20 08:09:35;;;;;;;11.93;10.82;;;18.80;99.90;;;;;;5100620;28;20220;-86
2022/08/20 08:12:06;;;;;;;10.82;9.82;;;18.90;99.90;;;;;;5103489;28;20203;-86
2022/08/20 08:14:34;;;;;;;14.55;13.00;;;19.10;99.40;;;;;;5101177;28;20539;-86
2022/08/20 08:17:03;;;;;;;11.77;10.68;;;19.30;98.50;;;;;;5105298;28;20191;-86
2022/08/20 08:19:37;;;;;;;13.10;11.73;;;19.40;98.30;;;;;;5107565;27;20608;-86
2022/08/20 08:22:11;;;;;;;20.50;16.33;;;19.40;97.90;;;;;;5104709;28;20196;-86
2022/08/20 08:24:38;;;;;;;11.23;10.13;;;19.40;98.40;;;;;;5108373;28;20257;-86
2022/08/20 08:27:06;;;;;;;11.15;9.70;;;19.50;98.00;;;;;;5107091;28;20200;-86
2022/08/20 08:29:34;;;;;;;10.35;9.32;;;19.40;97.90;;;;;;5115996;28;20339;-86
2022/08/20 08:32:02;;;;;;;10.60;9.55;;;19.60;97.30;;;;;;5109083;28;20241;-86
2022/08/20 08:34:32;;;;;;;12.60;9.60;;;19.70;96.70;;;;;;5114437;28;20199;-86
2022/08/20 08:37:01;;;;;;;10.75;9.75;;;19.60;97.30;;;;;;5112552;28;20191;-86
2022/08/20 08:39:32;;;;;;;11.35;10.18;;;19.60;97.10;;;;;;5114696;28;20231;-86
2022/08/20 08:42:02;;;;;;;10.50;9.40;;;19.40;97.90;;;;;;5103989;28;20197;-86
2022/08/20 08:44:33;;;;;;;10.65;9.57;;;19.30;97.90;;;;;;5105088;28;20725;-86
2022/08/20 08:47:17;;;;;;;10.98;9.88;;;19.40;97.90;;;;;;5106078;28;20202;-85
2022/08/20 08:49:48;;;;;;;12.18;10.98;;;19.50;97.50;;;;;;5113140;28;20272;-86
2022/08/20 08:52:21;;;;;;;10.73;9.70;;;19.40;97.70;;;;;;5115789;28;20215;-86
2022/08/20 08:54:52;;;;;;;10.93;9.82;;;19.30;97.90;;;;;;5114202;27;20204;-86
2022/08/20 08:57:19;;;;;;;12.02;10.48;;;19.20;98.10;;;;;;5113481;28;20200;-86
2022/08/20 08:59:51;;;;;;;11.13;10.13;;;19.10;98.20;;;;;;5112184;28;20207;-86
2022/08/20 09:02:21;;;;;;;14.00;10.60;;;19.00;98.10;;;;;;5104636;28;20278;-86
2022/08/20 09:04:55;;;;;;;11.00;9.95;;;18.90;98.60;;;;;;5112223;28;20207;-86
2022/08/20 09:07:27;;;;;;;12.32;10.60;;;19.00;98.60;;;;;;5115086;28;20260;-86
2022/08/20 09:09:55;;;;;;;12.90;10.48;;;19.00;98.90;;;;;;5115636;27;20216;-86
2022/08/20 09:12:26;;;;;;;12.68;9.65;;;19.10;98.30;;;;;;5113090;28;20564;-86
2022/08/20 09:14:54;;;;;;;11.88;9.95;;;19.20;97.90;;;;;;5113417;28;20573;-86
2022/08/20 09:17:23;;;;;;;11.50;10.38;;;19.30;98.20;;;;;;5101849;28;20643;-85
2022/08/20 09:19:51;;;;;;;11.95;10.73;;;19.20;98.00;;;;;;5114596;28;20214;-86
2022/08/20 09:22:20;;;;;;;12.63;10.38;;;19.10;98.30;;;;;;5115874;28;20192;-86
2022/08/20 09:24:47;;;;;;;11.65;10.48;;;19.10;98.70;;;;;;5115006;28;20627;-86
2022/08/20 09:27:16;;;;;;;12.27;11.00;;;19.10;98.70;;;;;;5110271;28;20196;-86
2022/08/20 09:29:42;;;;;;;11.63;10.43;;;19.10;98.90;;;;;;5111092;28;20600;-86
2022/08/20 09:32:12;;;;;;;12.70;11.40;;;19.10;99.30;;;;;;5107395;28;20189;-86
2022/08/20 09:34:41;;;;;;;13.23;11.70;;;19.10;99.40;;;;;;5114217;28;20200;-86
2022/08/20 09:37:08;;;;;;;11.80;10.60;;;19.20;99.10;;;;;;5114356;28;20195;-86
2022/08/20 09:39:35;;;;;;;11.38;10.32;;;19.30;99.00;;;;;;5111052;28;20192;-86
2022/08/20 09:42:10;;;;;;;13.55;12.13;;;19.30;98.80;;;;;;5113717;28;20203;-86
2022/08/20 09:44:39;;;;;;;12.70;11.40;;;19.20;99.00;;;;;;5112481;28;20227;-86
2022/08/20 09:47:06;;;;;;;13.25;12.00;;;19.10;99.10;;;;;;5113115;28;20200;-86
2022/08/20 09:49:33;;;;;;;15.65;11.30;;;19.10;99.10;;;;;;5100718;28;20220;-86
2022/08/20 09:52:01;;;;;;;12.77;11.48;;;19.20;99.20;;;;;;5103380;28;20252;-86
2022/08/20 09:54:32;;;;;;;13.63;12.05;;;19.30;99.20;;;;;;5101419;28;20199;-86
2022/08/20 09:57:03;;;;;;;12.50;11.35;;;19.20;99.60;;;;;;5095602;28;20643;-86
2022/08/20 09:59:31;;;;;;;12.27;11.07;;;19.20;99.50;;;;;;5109048;28;20231;-86
2022/08/20 10:01:59;;;;;;;15.20;12.80;;;19.30;99.20;;;;;;5095927;28;20201;-86
2022/08/20 10:04:26;;;;;;;14.95;13.15;;;19.40;99.30;;;;;;5106612;28;20203;-86
2022/08/20 10:06:53;;;;;;;12.10;10.90;;;19.30;99.70;;;;;;5096661;28;20706;-86
2022/08/20 10:09:20;;;;;;;13.73;12.43;;;19.40;99.80;;;;;;5105951;28;20224;-86
2022/08/20 10:11:46;;;;;;;13.25;11.90;;;19.50;99.40;;;;;;5110657;28;20577;-86
2022/08/20 10:14:13;;;;;;;11.85;10.65;;;19.50;99.30;;;;;;5095628;28;20200;-86
2022/08/20 10:16:40;;;;;;;10.48;9.48;;;19.70;98.50;;;;;;5109482;28;20637;-86
2022/08/20 10:19:08;;;;;;;13.75;12.27;;;19.90;98.10;;;;;;5095621;28;20204;-86
2022/08/20 10:21:35;;;;;;;14.30;10.85;;;19.90;98.10;;;;;;5107845;28;20196;-86
2022/08/20 10:24:02;;;;;;;12.60;11.38;;;20.00;98.10;;;;;;5110387;28;20196;-86
2022/08/20 10:26:29;;;;;;;12.30;11.25;;;20.00;98.10;;;;;;5108651;28;20192;-86
2022/08/20 10:28:56;;;;;;;21.98;19.83;;;20.00;98.10;;;;;;5110889;28;20584;-86
2022/08/20 10:31:23;;;;;;;17.17;15.38;;;19.90;98.10;;;;;;5113609;28;20611;-86
2022/08/20 10:33:50;;;;;;;47.47;42.55;;;20.00;98.10;;;;;;5114332;28;20196;-86
2022/08/20 10:36:18;;;;;;;97.30;87.03;;;20.10;98.40;;;;;;5107228;28;20268;-84
2022/08/20 10:38:47;;;;;;;14.75;13.35;;;20.10;98.50;;;;;;5098794;28;20200;-86
2022/08/20 10:41:14;;;;;;;14.70;13.27;;;20.10;98.40;;;;;;5095825;28;20232;-86
2022/08/20 10:43:41;;;;;;;16.23;13.85;;;19.90;98.90;;;;;;5107536;28;20224;-86
2022/08/20 10:46:08;;;;;;;15.13;13.60;;;19.70;98.40;;;;;;5103147;28;20315;-84
2022/08/20 10:48:35;;;;;;;16.33;14.00;;;19.70;98.90;;;;;;5119529;28;20249;-84
2022/08/20 10:51:02;;;;;;;17.23;14.65;;;19.60;98.90;;;;;;5117461;28;20294;-84
2022/08/20 10:53:30;;;;;;;15.77;14.27;;;19.70;99.50;;;;;;5115008;28;20294;-84
2022/08/20 10:55:57;;;;;;;14.55;13.13;;;19.90;99.50;;;;;;5115755;28;20575;-84
2022/08/20 10:58:36;;;;;;;14.43;13.00;;;20.20;98.10;;;;;;5116929;28;20193;-84
2022/08/20 11:01:02;;;;;;;17.75;14.23;;;20.40;97.50;;;;;;5117550;28;20234;-84
2022/08/20 11:03:30;;;;;;;17.33;14.25;;;20.50;97.30;;;;;;5115956;28;20702;-83
2022/08/20 11:05:57;;;;;;;14.10;12.65;;;20.40;97.60;;;;;;5111399;28;20204;-83
2022/08/20 11:08:24;;;;;;;15.00;13.43;;;20.30;98.10;;;;;;5120613;28;20206;-84
2022/08/20 11:10:52;;;;;;;15.27;13.63;;;20.30;98.10;;;;;;5113301;28;20232;-84
2022/08/20 11:13:19;;;;;;;16.00;14.40;;;20.20;98.10;;;;;;5109939;28;20287;-84
2022/08/20 11:15:46;;;;;;;14.68;13.13;;;20.20;98.70;;;;;;5122642;28;20295;-84
2022/08/20 11:18:14;;;;;;;160.88;144.00;;;20.10;99.10;;;;;;5122227;28;20226;-84
2022/08/20 11:20:41;;;;;;;51.53;46.05;;;20.10;99.50;;;;;;5122731;28;20200;-83
2022/08/20 11:23:08;;;;;;;23.13;20.95;;;20.00;99.50;;;;;;5113119;28;20231;-84
2022/08/20 11:25:35;;;;;;;18.70;16.70;;;19.90;99.50;;;;;;5113331;27;20235;-84
2022/08/20 11:28:04;;;;;;;17.15;15.27;;;19.90;99.80;;;;;;5115050;28;20228;-84
2022/08/20 11:30:34;;;;;;;19.75;17.75;;;19.60;99.90;;;;;;5111186;28;20212;-84
2022/08/20 11:33:02;;;;;;;19.83;17.73;;;19.30;99.90;;;;;;5114815;28;20599;-83
2022/08/20 11:35:31;;;;;;;20.35;18.35;;;19.00;99.90;;;;;;5119738;28;20198;-84
2022/08/20 11:37:59;;;;;;;19.98;18.02;;;19.10;99.90;;;;;;5109413;28;20200;-87
2022/08/20 11:40:29;;;;;;;20.83;18.67;;;19.30;99.90;;;;;;5117377;28;20206;-86
2022/08/20 11:42:57;;;;;;;20.35;18.20;;;19.50;99.90;;;;;;5113689;28;20266;-86
2022/08/20 11:45:25;;;;;;;18.25;16.38;;;19.50;99.90;;;;;;5113497;28;20318;-86
2022/08/20 11:47:52;;;;;;;19.27;17.30;;;19.70;99.90;;;;;;5115072;28;20196;-87
2022/08/20 11:50:20;;;;;;;18.65;16.67;;;19.90;99.90;;;;;;5103139;28;20272;-87
2022/08/20 11:52:48;;;;;;;20.38;18.48;;;20.00;99.90;;;;;;5116272;28;20239;-84
2022/08/20 11:55:16;;;;;;;21.10;18.95;;;20.20;99.90;;;;;;5118023;28;20212;-84
2022/08/20 11:57:48;;;;;;;24.95;22.35;;;20.30;99.90;;;;;;5103783;28;20200;-84
2022/08/20 12:00:18;;;;;;;21.17;19.20;;;20.20;99.90;;;;;;5107984;28;20196;-86
2022/08/20 12:02:47;;;;;;;18.52;16.77;;;20.20;99.90;;;;;;5106103;28;20647;-86
2022/08/20 12:05:14;;;;;;;18.95;17.15;;;20.20;99.90;;;;;;5115406;28;20558;-86
2022/08/20 12:07:41;;;;;;;17.70;16.08;;;20.00;99.90;;;;;;5115832;28;20282;-86
2022/08/20 12:10:12;;;;;;;24.60;22.10;;;20.00;99.90;;;;;;5101790;28;20248;-84
2022/08/20 12:12:39;;;;;;;22.63;20.23;;;20.10;99.90;;;;;;5114775;28;20259;-84
2022/08/20 12:15:08;;;;;;;19.92;17.83;;;20.00;99.90;;;;;;5112316;28;20192;-84
2022/08/20 12:17:35;;;;;;;18.15;16.35;;;19.90;99.90;;;;;;5122203;28;20290;-84
2022/08/20 12:20:07;;;;;;;17.45;15.65;;;19.80;99.90;;;;;;5120232;28;20211;-86
2022/08/20 12:22:33;;;;;;;16.42;14.77;;;19.80;99.90;;;;;;5105347;28;20627;-86
2022/08/20 12:28:24;;;;;;;15.38;14.05;;;19.70;99.90;;;;;;5059880;28;20200;-84
2022/08/20 12:30:50;;;;;;;15.07;13.48;;;19.70;99.90;;;;;;5109851;28;20298;-87
2022/08/20 12:33:17;;;;;;;14.48;13.18;;;19.80;99.90;;;;;;5105985;28;20201;-87
2022/08/20 12:35:46;;;;;;;13.20;11.90;;;19.70;99.90;;;;;;5111025;28;20204;-87
2022/08/20 12:38:13;;;;;;;12.05;11.00;;;19.80;99.90;;;;;;5114838;27;20206;-87
2022/08/20 12:40:41;;;;;;;10.95;9.77;;;19.90;99.90;;;;;;5114527;28;20667;-87
2022/08/20 12:43:08;;;;;;;10.80;9.80;;;20.10;99.90;;;;;;5119479;28;20258;-84
2022/08/20 12:45:36;;;;;;;10.07;9.05;;;20.50;99.90;;;;;;5117247;28;20207;-85